Snake Valley, Nevada Weather observations

Data are for 10 minute period ending at time listed.
 Day   Time   Solar   Ave.   Ave.  Ave.  Vector  Max.   Baro.   Total    
  of    of     Rad.   Air    Rel.  Wind   Wind   Wind  Press.  Precip.   
Year   Day            Temp.  Hum.  Speed  Dir.   Gust                    
2014   (PST)  Kw/m2    F      %     mph   deg.    mph    mb.     in.     
-------------------------------------------------------------------------
 258   20:00   0.00   58.9    60    1.5   241     3.3   844.2    0.00 
 258   20:10   0.00   61.0    54    3.7   271     4.9   844.1    0.00 
 258   20:20   0.00   58.7    61    3.9   278     5.0   844.1    0.00 
 258   20:30   0.00   57.1    65    4.1   280     5.0   844.2    0.00 
 258   20:40   0.00   56.9    65    1.9   274     4.2   844.2    0.00 
 258   20:50   0.00   57.6    62    1.4   194     3.9   844.3    0.00 
 258   21:00   0.00   56.8    62    3.7   249     5.8   844.4    0.00 
 258   21:10   0.00   55.5    64    3.2   238     4.1   844.5    0.00 
 258   21:20   0.00   55.3    64    3.0   254     3.9   844.5    0.00 
 258   21:30   0.00   56.5    60    3.1   250     3.9   844.5    0.00 
 258   21:40   0.00   55.7    65    2.5   262     4.2   844.6    0.00 
 258   21:50   0.00   55.0    71    1.1   287     2.4   844.6    0.00 
 258   22:00   0.00   54.5    69    0.8   102     3.7   844.6    0.00 
 258   22:10   0.00   55.2    66    2.5   350     3.5   844.6    0.00 
 258   22:20   0.00   55.6    63    3.9    15     4.4   844.6    0.00 
 258   22:30   0.00   53.9    68    2.8    18     4.3   844.6    0.00 
 258   22:40   0.00   52.7    75    2.0   316     3.4   844.5    0.00 
 258   22:50   0.00   52.2    75    1.7   351     2.8   844.6    0.00 
 258   23:00   0.00   52.1    76    1.4   304     4.3   844.6    0.00 
 258   23:10   0.00   49.4    79    2.9   199     4.2   844.7    0.00 
 258   23:20   0.00   50.3    77    2.2   199     3.9   844.7    0.00 
 258   23:30   0.00   50.3    77    3.9   222     4.8   844.7    0.00 
 258   23:40   0.00   52.3    73    4.7   267     5.6   844.7    0.00 
 258   23:50   0.00   53.0    73    2.5   329     4.2   844.8    0.00 
 259    0:00   0.00   52.6    74    3.7   295     5.0   844.8    0.00 
 259    0:10   0.00   51.0    77    4.2   273     5.6   844.8    0.00 
 259    0:20   0.00   48.9    80    2.4   266     4.2   844.8    0.00 
 259    0:30   0.00   48.7    80    1.9   214     4.7   844.7    0.00 
 259    0:40   0.00   49.0    79    2.1   221     4.4   844.8    0.00 
 259    0:50   0.00   50.0    77    2.5   254     4.6   844.8    0.00 
 259    1:00   0.00   51.5    74    2.1   286     6.3   844.7    0.00 
 259    1:10   0.00   49.0    80    1.8   270     3.5   844.7    0.00 
 259    1:20   0.00   48.0    82    1.4   265     3.0   844.6    0.00 
 259    1:30   0.00   47.8    83    2.4   238     4.9   844.6    0.00 
 259    1:40   0.00   47.4    83    1.7   260     4.5   844.5    0.00 
 259    1:50   0.00   47.4    83    0.5   266     2.4   844.3    0.00 
 259    2:00   0.00   47.0    85    1.6   302     5.8   844.3    0.00 
 259    2:10   0.00   48.3    86    1.8   294     3.7   844.3    0.00 
 259    2:20   0.00   49.4    81    2.7   285     3.9   844.3    0.00 
 259    2:30   0.00   49.4    82    2.4   285     8.4   844.3    0.00 
 259    2:40   0.00   48.4    81    3.6   305     5.2   844.3    0.00 
 259    2:50   0.00   49.1    80    3.0   297     5.3   844.4    0.00 
 259    3:00   0.00   47.1    82    3.8   160     6.0   844.4    0.00 
 259    3:10   0.00   47.3    84    2.4   219     8.4   844.4    0.00 
 259    3:20   0.00   49.2    81    2.3   268     8.0   844.4    0.00 
 259    3:30   0.00   48.5    80    2.2   296     3.8   844.4    0.00 
 259    3:40   0.00   46.7    83    2.9   317     4.6   844.4    0.00 
 259    3:50   0.00   47.6    81    2.9   324     5.2   844.4    0.00 
 259    4:00   0.00   46.2    83    2.8    59     4.5   844.4    0.00 
 259    4:10   0.00   45.9    84    1.3   349     2.4   844.4    0.00 
 259    4:20   0.00   46.1    86    1.3   267     5.3   844.4    0.00 
 259    4:30   0.00   45.6    86    3.0   318     4.7   844.4    0.00 
 259    4:40   0.00   45.7    85    3.4   329     4.2   844.4    0.00 
 259    4:50   0.00   45.7    84    3.1   317     3.9   844.4    0.00 
 259    5:00   0.00   45.0    87    3.8   268     4.8   844.5    0.00 
 259    5:10   0.00   45.5    86    4.2   225     5.6   844.6    0.00 
 259    5:20   0.00   47.0    83    3.0   224     4.3   844.7    0.00 
 259    5:30   0.01   46.7    82    1.1   237     3.1   844.7    0.00 
 259    5:40   0.02   47.0    82    1.6   247     3.4   844.7    0.00 
 259    5:50   0.04   47.3    81    1.8   284     3.1   844.7    0.00 
 259    6:00   0.06   47.9    82    1.2   307     2.5   844.8    0.00 
 259    6:10   0.09   49.9    81    0.2   335     1.5   844.9    0.00 
 259    6:20   0.11   51.6    80    1.4    99     3.4   844.9    0.00 
 259    6:30   0.14   52.7    78    1.5   167     3.9   844.9    0.00 
 259    6:40   0.17   55.0    74    1.7   206     3.8   844.8    0.00 
 259    6:50   0.21   57.3    71    2.8   197     4.2   844.8    0.00 
 259    7:00   0.24   61.0    64    3.1   157     4.3   844.9    0.00 
 259    7:10   0.27   62.7    57    5.1   145     8.0   844.9    0.00 
 259    7:20   0.31   62.9    55    4.9   149     7.8   844.8    0.00 
 259    7:30   0.34   64.5    52    5.3   121     7.8   844.8    0.00 
 259    7:40   0.38   66.0    51    4.7   124     7.0   844.7    0.00 
 259    7:50   0.41   68.8    46    3.5   161     5.3   844.6    0.00 
 259    8:00   0.44   69.6    50    2.5   221     4.2   844.6    0.00 
 259    8:10   0.48   71.5    42    2.7   167     5.0   844.6    0.00 
 259    8:20   0.51   72.7    42    3.9   181     7.5   844.4    0.00 
 259    8:30   0.54   74.0    40    4.3   165     7.5   844.3    0.00 
 259    8:40   0.57   74.5    38    5.5   150     7.8   844.3    0.00 
 259    8:50   0.60   75.0    37    2.7   171     6.2   844.3    0.00 
 259    9:00   0.63   76.3    36    3.5    88    11.3   844.3    0.00 
 259    9:10   0.65   76.2    34    8.0   116    12.7   844.2    0.00 
 259    9:20   0.68   76.3    34    9.4    99    14.2   844.1    0.00 
 259    9:30   0.70   77.8    32    9.1   106    13.5   844.1    0.00 
 259    9:40   0.72   78.9    32    8.3   109    13.0   844.1    0.00 
 259    9:50   0.74   80.3    30    6.2   114    14.2   844.1    0.00 
 259   10:00   0.76   81.2    30    7.2   134    11.0   844.1    0.00 
 259   10:10   0.78   81.0    30   10.5   150    15.3   844.0    0.00 
 259   10:20   0.79   82.0    29    8.2   141    14.6   843.9    0.00 
 259   10:30   0.80   83.2    26    6.2   124    12.6   843.8    0.00 
 259   10:40   0.82   86.0    21    3.0   162     9.3   843.7    0.00 
 259   10:50   0.86   86.8    20    5.9   192    10.2   843.7    0.00 
 259   11:00   0.88   87.5    18    1.6   347     5.5   843.7    0.00 
 259   11:10   0.87   87.5    20    2.2   304     5.7   843.6    0.00 
 259   11:20   0.84   87.0    18    2.5    40    11.3   843.5    0.00 
 259   11:30   0.86   87.0    21    3.5    35     6.1   843.3    0.00 
 259   11:40   0.86   87.1    18    3.4   351     5.5   843.3    0.00 
 259   11:50   0.87   86.7    24    4.3   230    10.2   843.2    0.00 
 259   12:00   0.88   84.3    26    6.9   277    14.0   843.1    0.00 
 259   12:10   0.90   86.9    21    2.7   153     5.9   843.0    0.00 
 259   12:20   0.78   87.6    22    3.6   257     7.2   842.9    0.00 
 259   12:30   0.36   83.2    26    5.1   283     7.9   842.7    0.00 
 259   12:40   0.36   83.5    27    1.7   252     4.2   842.6    0.00 
 259   12:50   0.58   85.1    19    2.2   268     4.4   842.5    0.00 
 259   13:00   0.92   89.2    18    2.3   301     8.7   842.3    0.00 
 259   13:10   0.85   87.3    24    3.8   262     8.4   842.3    0.00 
 259   13:20   0.84   87.3    24    5.5   225     8.9   842.3    0.00 
 259   13:30   0.82   89.3    18    4.3   199     8.1   842.2    0.00 
 259   13:40   0.61   90.0    16    2.1   301     4.6   842.0    0.00 
 259   13:50   0.71   88.5    23    4.0   124     6.7   841.9    0.00 
 259   14:00   0.30   87.8    17    3.6   207     7.5   841.8    0.00 
 259   14:10   0.37   85.8    24    3.2   233     5.8   841.7    0.00 
 259   14:20   0.78   88.6    22    1.7   257     4.0   841.6    0.00 
 259   14:30   0.71   90.8    17    2.2   219     5.2   841.5    0.00 
 259   14:40   0.67   90.2    19    3.4   234     9.1   841.4    0.00 
 259   14:50   0.49   90.2    17    3.4   177     7.7   841.3    0.00 
 259   15:00   0.33   85.9    25    3.8   246     6.4   841.2    0.00 
 259   15:10   0.55   86.7    28    2.6   249     5.0   841.1    0.00 
 259   15:20   0.52   89.5    18    1.7   158     5.0   841.0    0.00 
 259   15:30   0.48   89.9    20    2.6   216     7.5   840.9    0.00 
 259   15:40   0.43   86.9    24    5.5   227    10.7   840.9    0.00 
 259   15:50   0.38   84.5    28    5.1   216     8.0   840.8    0.00 
 259   16:00   0.34   84.3    28    4.9   233     8.3   840.7    0.00 
 259   16:10   0.31   84.2    32    2.6   256     3.3   840.7    0.00 
 259   16:20   0.28   85.6    28    2.2   284     3.5   840.7    0.00 
 259   16:30   0.24   87.0    27    1.5   240     2.9   840.7    0.00 
 259   16:40   0.17   85.1    35    1.3   230     3.1   840.7    0.00 
 259   16:50   0.15   81.8    34    2.9   251     4.2   840.7    0.00 
 259   17:00   0.13   80.7    34    3.7   237     4.7   840.7    0.00 
 259   17:10   0.08   77.1    40    4.4   246     5.3   840.7    0.00 
 259   17:20   0.05   74.9    42    4.5   234     5.5   840.6    0.00 
 259   17:30   0.01   70.8    49    5.3   233     6.1   840.4    0.00 
 259   17:40   0.01   67.4    52    5.5   253     7.2   840.3    0.00 
 259   17:50   0.01   65.0    57    5.0   264     5.8   840.3    0.00 
 259   18:00   0.00   64.3    57    5.0   268     5.6   840.2    0.00 
 259   18:10   0.00   63.7    56    5.1   271     5.8   840.3    0.00 
 259   18:20   0.00   63.7    54    5.5   267     6.2   840.5    0.00 
 259   18:30   0.00   63.8    52    5.4   252     7.1   840.7    0.00 
 259   18:40   0.00   64.3    50    5.1   258     6.6   840.7    0.00 
 259   18:50   0.00   63.7    52    4.6   255     5.8   840.8    0.00 
 259   19:00   0.00   64.0    51    4.1   238     6.4   840.9    0.00 
 259   19:10   0.00   65.9    46    4.9   250     8.0   840.9    0.00 
 259   19:20   0.00   66.4    43    3.6   239     5.3   840.9    0.00 
 259   19:30   0.00   63.8    53    4.3   272     5.6   841.0    0.00 
 259   19:40   0.00   62.0    56    5.1   286     6.5   840.9    0.00 
 259   19:50   0.00   62.7    53    5.4   276     6.6   841.0    0.00 

Return to Snake Valley graphs page.


Western Regional Climate Center,wrcc@dri.edu